Climatologie pour Saint-Brevin les Pins
Jour • Résumé pour avril 23, 2017 Système :  Métrique    Anglais   Mixte
« - 1 jour
+ 1 jour »
Jour Semaine Mois Année Personnalisé
  Maximum : Minimum : Moyenne :
Température sous abri : 18.7 °C 6.9 °C 12.7 °C
Point de rosée : 7.8 °C 2.8 °C 5.5 °C
Humidité : 92 % 35 % 65 %
Vitesse du vent : 25.7 km/h 0.0 km/h 7.9 km/h
Rafale : 32.2 km/h - -
Direction :- - East
Pression : 1025.3 hPa 1021.2 hPa -
Précipitations : 0.0 mm    
Historical Graphs
 
 
Tableau de données pour avril 23, 2017
Heure Tempé Pt rosée Pression Vent Vitesse Rafale Humidité Taux pluie (/hr) Soleil
00:00 12.1 °C 7.4 °C 1024.6 hPa NE 6.4 km/h 17.7 km/h 73 % 0.0 mm 0 W/m2
00:10 11.8 °C 7.1 °C 1024.6 hPa Calm   12.9 km/h 73 % 0.0 mm 0 W/m2
00:15 11.5 °C 7.2 °C 1024.6 hPa ENE 3.2 km/h 14.5 km/h 75 % 0.0 mm 0 W/m2
00:20 11.3 °C 7.3 °C 1024.6 hPa ENE 8.0 km/h 14.5 km/h 76 % 0.0 mm 0 W/m2
00:25 11.4 °C 7.3 °C 1024.6 hPa East 4.8 km/h 14.5 km/h 76 % 0.0 mm 0 W/m2
00:30 11.3 °C 7.2 °C 1024.6 hPa ENE 3.2 km/h 16.1 km/h 76 % 0.0 mm 0 W/m2
00:35 11.2 °C 7.1 °C 1024.9 hPa East 9.7 km/h 16.1 km/h 76 % 0.0 mm 0 W/m2
00:40 11.1 °C 7.0 °C 1024.9 hPa ENE 3.2 km/h 16.1 km/h 76 % 0.0 mm 0 W/m2
00:45 11.0 °C 6.9 °C 1024.9 hPa ENE 4.8 km/h 16.1 km/h 76 % 0.0 mm 0 W/m2
00:50 10.9 °C 6.9 °C 1024.6 hPa NE 3.2 km/h 14.5 km/h 76 % 0.0 mm 0 W/m2
00:55 10.8 °C 6.9 °C 1024.9 hPa East 1.6 km/h 14.5 km/h 77 % 0.0 mm 0 W/m2
01:00 10.8 °C 7.0 °C 1024.9 hPa ENE 4.8 km/h 14.5 km/h 77 % 0.0 mm 0 W/m2
01:05 10.7 °C 6.9 °C 1024.9 hPa ENE 6.4 km/h 12.9 km/h 77 % 0.0 mm 0 W/m2
01:10 10.6 °C 6.7 °C 1024.9 hPa ENE 6.4 km/h 12.9 km/h 77 % 0.0 mm 0 W/m2
01:15 10.4 °C 6.8 °C 1024.9 hPa ENE 6.4 km/h 11.3 km/h 78 % 0.0 mm 0 W/m2
01:20 10.3 °C 6.7 °C 1024.9 hPa ENE 8.0 km/h 11.3 km/h 78 % 0.0 mm 0 W/m2
01:25 10.2 °C 6.7 °C 1024.9 hPa NNE 1.6 km/h 11.3 km/h 79 % 0.0 mm 0 W/m2
01:30 10.1 °C 6.6 °C 1024.9 hPa ENE 11.3 km/h 11.3 km/h 79 % 0.0 mm 0 W/m2
01:35 9.9 °C 6.5 °C 1024.9 hPa ENE 3.2 km/h 11.3 km/h 79 % 0.0 mm 0 W/m2
01:40 9.8 °C 6.5 °C 1025.3 hPa East 8.0 km/h 11.3 km/h 80 % 0.0 mm 0 W/m2
01:45 9.7 °C 6.4 °C 1024.9 hPa ENE 3.2 km/h 12.9 km/h 80 % 0.0 mm 0 W/m2
01:50 9.7 °C 6.4 °C 1024.9 hPa NE 4.8 km/h 12.9 km/h 80 % 0.0 mm 0 W/m2
01:55 9.6 °C 6.5 °C 1024.9 hPa ENE 8.0 km/h 11.3 km/h 81 % 0.0 mm 0 W/m2
02:00 9.6 °C 6.5 °C 1024.9 hPa East 8.0 km/h 11.3 km/h 81 % 0.0 mm 0 W/m2
02:05 9.5 °C 6.4 °C 1024.9 hPa ENE 1.6 km/h 11.3 km/h 81 % 0.0 mm 0 W/m2
02:10 9.4 °C 6.3 °C 1024.9 hPa ENE 4.8 km/h 11.3 km/h 81 % 0.0 mm 0 W/m2
02:15 9.4 °C 6.3 °C 1024.9 hPa Calm   11.3 km/h 81 % 0.0 mm 0 W/m2
02:20 9.1 °C 6.1 °C 1024.9 hPa NE 3.2 km/h 8.0 km/h 82 % 0.0 mm 0 W/m2
02:25 8.8 °C 6.0 °C 1024.9 hPa Calm   8.0 km/h 83 % 0.0 mm 0 W/m2
02:30 8.7 °C 6.0 °C 1024.6 hPa ENE 3.2 km/h 8.0 km/h 83 % 0.0 mm 0 W/m2
02:35 8.6 °C 6.0 °C 1024.6 hPa ENE 3.2 km/h 6.4 km/h 84 % 0.0 mm 0 W/m2
02:40 8.6 °C 6.0 °C 1024.6 hPa NE 1.6 km/h 9.7 km/h 84 % 0.0 mm 0 W/m2
02:45 8.5 °C 5.9 °C 1024.6 hPa East 3.2 km/h 9.7 km/h 84 % 0.0 mm 0 W/m2
02:50 8.3 °C 6.0 °C 1024.6 hPa Calm   4.8 km/h 85 % 0.0 mm 0 W/m2
02:55 8.2 °C 5.8 °C 1024.6 hPa ENE 3.2 km/h 6.4 km/h 85 % 0.0 mm 0 W/m2
03:00 8.1 °C 5.9 °C 1024.6 hPa Calm   8.0 km/h 86 % 0.0 mm 0 W/m2
03:05 8.2 °C 6.0 °C 1024.6 hPa Calm   8.0 km/h 86 % 0.0 mm 0 W/m2
03:10 8.1 °C 5.9 °C 1024.6 hPa East 1.6 km/h 8.0 km/h 86 % 0.0 mm 0 W/m2
03:15 8.3 °C 5.9 °C 1024.6 hPa East 1.6 km/h 9.7 km/h 85 % 0.0 mm 0 W/m2
03:20 8.3 °C 6.0 °C 1024.6 hPa East 4.8 km/h 11.3 km/h 85 % 0.0 mm 0 W/m2
03:25 8.3 °C 5.9 °C 1024.6 hPa ENE 3.2 km/h 11.3 km/h 85 % 0.0 mm 0 W/m2
03:30 8.3 °C 6.0 °C 1024.6 hPa East 6.4 km/h 11.3 km/h 85 % 0.0 mm 0 W/m2
03:35 8.3 °C 6.0 °C 1024.6 hPa ENE 4.8 km/h 11.3 km/h 85 % 0.0 mm 0 W/m2
03:40 8.3 °C 5.9 °C 1024.6 hPa ENE 3.2 km/h 11.3 km/h 85 % 0.0 mm 0 W/m2
03:45 8.2 °C 5.8 °C 1024.3 hPa Calm   9.7 km/h 85 % 0.0 mm 0 W/m2
03:50 8.1 °C 5.9 °C 1024.3 hPa ENE 4.8 km/h 12.9 km/h 86 % 0.0 mm 0 W/m2
03:55 8.1 °C 5.7 °C 1024.3 hPa ENE 8.0 km/h 12.9 km/h 85 % 0.0 mm 0 W/m2
04:00 7.9 °C 5.7 °C 1024.3 hPa ENE 4.8 km/h 14.5 km/h 86 % 0.0 mm 0 W/m2
04:05 8.0 °C 5.8 °C 1024.3 hPa ENE 6.4 km/h 14.5 km/h 86 % 0.0 mm 0 W/m2
04:10 8.1 °C 5.9 °C 1024.3 hPa East 6.4 km/h 12.9 km/h 86 % 0.0 mm 0 W/m2
04:15 8.2 °C 6.0 °C 1024.3 hPa East 3.2 km/h 12.9 km/h 86 % 0.0 mm 0 W/m2
04:20 8.1 °C 5.9 °C 1024.3 hPa East 4.8 km/h 12.9 km/h 86 % 0.0 mm 0 W/m2
04:25 8.1 °C 5.9 °C 1024.3 hPa East 8.0 km/h 14.5 km/h 86 % 0.0 mm 0 W/m2
04:30 8.1 °C 5.9 °C 1024.3 hPa East 4.8 km/h 14.5 km/h 86 % 0.0 mm 0 W/m2
04:35 8.0 °C 5.8 °C 1024.3 hPa ENE 4.8 km/h 11.3 km/h 86 % 0.0 mm 0 W/m2
04:40 8.0 °C 5.8 °C 1024.3 hPa ENE 6.4 km/h 12.9 km/h 86 % 0.0 mm 0 W/m2
04:45 8.0 °C 5.8 °C 1024.3 hPa East 8.0 km/h 12.9 km/h 86 % 0.0 mm 0 W/m2
04:50 8.1 °C 6.0 °C 1023.9 hPa ENE 3.2 km/h 14.5 km/h 87 % 0.0 mm 0 W/m2
04:55 8.1 °C 6.0 °C 1023.9 hPa East 6.4 km/h 14.5 km/h 87 % 0.0 mm 0 W/m2
05:00 8.0 °C 6.0 °C 1023.9 hPa ENE 4.8 km/h 12.9 km/h 87 % 0.0 mm 0 W/m2
05:05 7.8 °C 5.8 °C 1023.9 hPa East 9.7 km/h 12.9 km/h 87 % 0.0 mm 0 W/m2
05:10 7.8 °C 5.9 °C 1023.9 hPa ENE 4.8 km/h 14.5 km/h 88 % 0.0 mm 0 W/m2
05:20 7.8 °C 5.9 °C 1023.9 hPa ENE 6.4 km/h 12.9 km/h 88 % 0.0 mm 0 W/m2
05:25 7.7 °C 5.8 °C 1023.9 hPa ENE 4.8 km/h 12.9 km/h 88 % 0.0 mm 0 W/m2
05:30 7.6 °C 5.7 °C 1023.9 hPa ENE 3.2 km/h 14.5 km/h 88 % 0.0 mm 0 W/m2
05:35 7.6 °C 5.7 °C 1023.9 hPa ENE 11.3 km/h 14.5 km/h 88 % 0.0 mm 0 W/m2
05:40 7.6 °C 5.9 °C 1023.9 hPa ENE 8.0 km/h 14.5 km/h 89 % 0.0 mm 0 W/m2
05:45 7.4 °C 5.7 °C 1023.9 hPa NE 6.4 km/h 14.5 km/h 89 % 0.0 mm 0 W/m2
05:50 7.5 °C 5.8 °C 1023.9 hPa ENE 6.4 km/h 14.5 km/h 89 % 0.0 mm 0 W/m2
05:55 7.5 °C 5.8 °C 1023.9 hPa ENE 11.3 km/h 14.5 km/h 89 % 0.0 mm 0 W/m2
06:00 7.6 °C 6.0 °C 1023.9 hPa East 8.0 km/h 12.9 km/h 90 % 0.0 mm 0 W/m2
06:05 7.6 °C 6.0 °C 1024.3 hPa ENE 4.8 km/h 14.5 km/h 90 % 0.0 mm 0 W/m2
06:10 7.5 °C 6.0 °C 1023.9 hPa ENE 12.9 km/h 16.1 km/h 90 % 0.0 mm 0 W/m2
06:15 7.4 °C 5.9 °C 1024.3 hPa East 3.2 km/h 16.1 km/h 90 % 0.0 mm 0 W/m2
06:20 7.4 °C 5.9 °C 1024.3 hPa East 6.4 km/h 12.9 km/h 90 % 0.0 mm 0 W/m2
06:25 7.3 °C 5.8 °C 1024.3 hPa East 4.8 km/h 12.9 km/h 90 % 0.0 mm 0 W/m2
06:30 7.3 °C 5.7 °C 1024.3 hPa East 8.0 km/h 12.9 km/h 90 % 0.0 mm 0 W/m2
06:35 7.3 °C 5.9 °C 1024.3 hPa ENE 6.4 km/h 11.3 km/h 91 % 0.0 mm 0 W/m2
06:40 7.2 °C 5.9 °C 1024.3 hPa East 4.8 km/h 11.3 km/h 91 % 0.0 mm 0 W/m2
06:45 7.2 °C 5.9 °C 1024.3 hPa ENE 6.4 km/h 11.3 km/h 91 % 0.0 mm 0 W/m2
06:50 7.1 °C 5.7 °C 1023.9 hPa East 1.6 km/h 11.3 km/h 91 % 0.0 mm 0 W/m2
06:55 7.1 °C 5.7 °C 1024.3 hPa ENE 4.8 km/h 12.9 km/h 91 % 0.0 mm 0 W/m2
07:00 7.0 °C 5.6 °C 1024.3 hPa East 4.8 km/h 12.9 km/h 91 % 0.0 mm 0 W/m2
07:05 7.1 °C 5.7 °C 1024.3 hPa East 4.8 km/h 11.3 km/h 91 % 0.0 mm 5 W/m2
07:10 7.1 °C 5.7 °C 1024.3 hPa NE 3.2 km/h 12.9 km/h 91 % 0.0 mm 7 W/m2
07:15 6.9 °C 5.7 °C 1024.3 hPa Calm   12.9 km/h 92 % 0.0 mm 9 W/m2
07:20 6.9 °C 5.7 °C 1024.3 hPa NNE 3.2 km/h 12.9 km/h 92 % 0.0 mm 12 W/m2
07:25 6.9 °C 5.7 °C 1024.3 hPa ENE 6.4 km/h 12.9 km/h 92 % 0.0 mm 16 W/m2
07:30 6.9 °C 5.7 °C 1024.3 hPa East 4.8 km/h 12.9 km/h 92 % 0.0 mm 19 W/m2
07:35 7.0 °C 5.8 °C 1024.3 hPa East 8.0 km/h 12.9 km/h 92 % 0.0 mm 25 W/m2
07:40 7.1 °C 5.8 °C 1024.3 hPa East 4.8 km/h 14.5 km/h 92 % 0.0 mm 26 W/m2
07:45 7.1 °C 5.9 °C 1024.6 hPa East 4.8 km/h 14.5 km/h 92 % 0.0 mm 32 W/m2
07:50 7.2 °C 6.0 °C 1024.6 hPa East 6.4 km/h 14.5 km/h 92 % 0.0 mm 33 W/m2
07:55 7.2 °C 6.0 °C 1024.6 hPa ESE 8.0 km/h 16.1 km/h 92 % 0.0 mm 35 W/m2
08:00 7.3 °C 6.1 °C 1024.6 hPa ENE 1.6 km/h 16.1 km/h 92 % 0.0 mm 40 W/m2
08:05 7.4 °C 6.2 °C 1024.6 hPa East 8.0 km/h 12.9 km/h 92 % 0.0 mm 44 W/m2
08:10 7.5 °C 6.3 °C 1024.6 hPa ENE 3.2 km/h 12.9 km/h 92 % 0.0 mm 47 W/m2
08:15 7.6 °C 6.2 °C 1024.6 hPa East 4.8 km/h 16.1 km/h 91 % 0.0 mm 49 W/m2
08:20 7.8 °C 6.4 °C 1024.6 hPa NE 6.4 km/h 16.1 km/h 91 % 0.0 mm 53 W/m2
08:25 7.9 °C 6.5 °C 1024.6 hPa ENE 12.9 km/h 16.1 km/h 91 % 0.0 mm 134 W/m2
08:30 8.1 °C 6.7 °C 1024.6 hPa ENE 4.8 km/h 16.1 km/h 91 % 0.0 mm 165 W/m2
08:35 8.3 °C 6.8 °C 1024.9 hPa ESE 11.3 km/h 14.5 km/h 90 % 0.0 mm 174 W/m2
08:40 8.6 °C 7.0 °C 1024.9 hPa SE 12.9 km/h 20.9 km/h 90 % 0.0 mm 195 W/m2
08:45 8.7 °C 7.0 °C 1024.9 hPa East 8.0 km/h 20.9 km/h 89 % 0.0 mm 207 W/m2
08:50 8.9 °C 7.1 °C 1024.9 hPa NE 9.7 km/h 14.5 km/h 88 % 0.0 mm 227 W/m2
08:55 9.2 °C 7.2 °C 1024.9 hPa ENE 4.8 km/h 14.5 km/h 87 % 0.0 mm 244 W/m2
09:00 9.4 °C 7.2 °C 1024.9 hPa ENE 12.9 km/h 16.1 km/h 86 % 0.0 mm 260 W/m2
09:05 9.6 °C 7.4 °C 1024.9 hPa ESE 12.9 km/h 17.7 km/h 86 % 0.0 mm 267 W/m2
09:10 9.8 °C 7.4 °C 1024.9 hPa ESE 12.9 km/h 17.7 km/h 85 % 0.0 mm 292 W/m2
09:15 10.1 °C 7.5 °C 1024.9 hPa East 8.0 km/h 17.7 km/h 84 % 0.0 mm 302 W/m2
09:20 10.3 °C 7.6 °C 1024.9 hPa NE 9.7 km/h 17.7 km/h 83 % 0.0 mm 322 W/m2
09:25 10.5 °C 7.6 °C 1024.9 hPa East 17.7 km/h 20.9 km/h 82 % 0.0 mm 338 W/m2
09:30 10.6 °C 7.5 °C 1024.9 hPa ENE 11.3 km/h 20.9 km/h 81 % 0.0 mm 353 W/m2
09:35 10.8 °C 7.5 °C 1024.9 hPa SE 16.1 km/h 20.9 km/h 80 % 0.0 mm 360 W/m2
09:40 11.0 °C 7.7 °C 1024.9 hPa East 14.5 km/h 20.9 km/h 80 % 0.0 mm 390 W/m2
09:45 11.2 °C 7.5 °C 1024.9 hPa ESE 14.5 km/h 19.3 km/h 78 % 0.0 mm 404 W/m2
09:50 11.5 °C 7.6 °C 1024.9 hPa SSE 4.8 km/h 24.1 km/h 77 % 0.0 mm 401 W/m2
09:55 11.4 °C 7.4 °C 1025.3 hPa East 8.0 km/h 24.1 km/h 76 % 0.0 mm 431 W/m2
10:00 11.7 °C 7.4 °C 1024.9 hPa East 8.0 km/h 22.5 km/h 75 % 0.0 mm 445 W/m2
10:05 11.8 °C 7.3 °C 1024.9 hPa East 16.1 km/h 22.5 km/h 74 % 0.0 mm 455 W/m2
10:10 11.9 °C 7.5 °C 1024.9 hPa ENE 4.8 km/h 22.5 km/h 74 % 0.0 mm 471 W/m2
10:15 12.2 °C 7.3 °C 1024.9 hPa ENE 12.9 km/h 27.4 km/h 72 % 0.0 mm 482 W/m2
10:25 12.6 °C 7.5 °C 1024.9 hPa East 8.0 km/h 22.5 km/h 71 % 0.0 mm 513 W/m2
10:30 12.6 °C 7.3 °C 1024.9 hPa East 6.4 km/h 22.5 km/h 70 % 0.0 mm 522 W/m2
10:35 12.8 °C 7.0 °C 1024.9 hPa ESE 14.5 km/h 25.7 km/h 68 % 0.0 mm 534 W/m2
10:40 12.9 °C 7.1 °C 1024.9 hPa ESE 14.5 km/h 25.7 km/h 68 % 0.0 mm 550 W/m2
10:45 13.0 °C 7.2 °C 1024.9 hPa East 9.7 km/h 25.7 km/h 68 % 0.0 mm 564 W/m2
10:50 13.3 °C 7.8 °C 1024.9 hPa East 4.8 km/h 25.7 km/h 69 % 0.0 mm 577 W/m2
10:55 13.7 °C 7.6 °C 1024.9 hPa East 8.0 km/h 22.5 km/h 67 % 0.0 mm 594 W/m2
11:00 14.1 °C 7.6 °C 1024.9 hPa ESE 14.5 km/h 24.1 km/h 65 % 0.0 mm 594 W/m2
11:05 13.7 °C 7.5 °C 1024.9 hPa ENE 11.3 km/h 27.4 km/h 66 % 0.0 mm 613 W/m2
11:10 14.1 °C 7.3 °C 1024.9 hPa SE 14.5 km/h 27.4 km/h 64 % 0.0 mm 628 W/m2
11:15 13.9 °C 7.4 °C 1024.6 hPa East 8.0 km/h 24.1 km/h 65 % 0.0 mm 640 W/m2
11:20 14.3 °C 7.3 °C 1024.6 hPa East 16.1 km/h 24.1 km/h 63 % 0.0 mm 645 W/m2
11:25 14.1 °C 6.9 °C 1024.9 hPa SE 19.3 km/h 25.7 km/h 62 % 0.0 mm 650 W/m2
11:30 14.2 °C 6.7 °C 1024.6 hPa NE 11.3 km/h 25.7 km/h 61 % 0.0 mm 668 W/m2
11:35 14.4 °C 6.8 °C 1024.6 hPa ESE 4.8 km/h 24.1 km/h 60 % 0.0 mm 684 W/m2
11:40 14.7 °C 6.7 °C 1024.6 hPa NE 14.5 km/h 24.1 km/h 59 % 0.0 mm 693 W/m2
11:45 14.8 °C 6.8 °C 1024.6 hPa ENE 11.3 km/h 25.7 km/h 59 % 0.0 mm 698 W/m2
11:55 15.3 °C 7.1 °C 1024.6 hPa ESE 11.3 km/h 25.7 km/h 58 % 0.0 mm 717 W/m2
12:00 15.6 °C 7.4 °C 1024.6 hPa East 4.8 km/h 24.1 km/h 58 % 0.0 mm 728 W/m2
12:05 15.9 °C 6.9 °C 1024.6 hPa East 17.7 km/h 22.5 km/h 55 % 0.0 mm 737 W/m2
12:10 15.7 °C 7.0 °C 1024.6 hPa East 14.5 km/h 29.0 km/h 56 % 0.0 mm 744 W/m2
12:15 15.5 °C 6.8 °C 1024.6 hPa ENE 12.9 km/h 29.0 km/h 56 % 0.0 mm 751 W/m2
12:20 15.8 °C 7.5 °C 1024.6 hPa ENE 12.9 km/h 27.4 km/h 58 % 0.0 mm 759 W/m2
12:25 15.8 °C 6.8 °C 1024.6 hPa ENE 14.5 km/h 29.0 km/h 55 % 0.0 mm 768 W/m2
12:30 15.8 °C 6.8 °C 1024.3 hPa ESE 8.0 km/h 29.0 km/h 55 % 0.0 mm 772 W/m2
12:40 16.3 °C 6.7 °C 1024.3 hPa ENE 22.5 km/h 30.6 km/h 53 % 0.0 mm 791 W/m2
12:45 16.2 °C 6.6 °C 1024.3 hPa ENE 12.9 km/h 27.4 km/h 53 % 0.0 mm 802 W/m2
12:50 16.3 °C 6.7 °C 1024.3 hPa ESE 22.5 km/h 27.4 km/h 53 % 0.0 mm 802 W/m2
12:55 16.3 °C 6.1 °C 1024.3 hPa East 16.1 km/h 29.0 km/h 51 % 0.0 mm 812 W/m2
13:00 16.1 °C 6.2 °C 1024.3 hPa ENE 8.0 km/h 29.0 km/h 52 % 0.0 mm 809 W/m2
13:05 16.2 °C 6.1 °C 1024.3 hPa ESE 24.1 km/h 24.1 km/h 51 % 0.0 mm 817 W/m2
13:10 16.6 °C 6.7 °C 1024.3 hPa SSE 11.3 km/h 24.1 km/h 52 % 0.0 mm 821 W/m2
13:15 16.6 °C 6.1 °C 1023.9 hPa SE 8.0 km/h 29.0 km/h 50 % 0.0 mm 826 W/m2
13:20 16.7 °C 5.6 °C 1023.9 hPa ESE 12.9 km/h 29.0 km/h 48 % 0.0 mm 828 W/m2
13:25 16.9 °C 5.8 °C 1023.9 hPa ESE 20.9 km/h 27.4 km/h 48 % 0.0 mm 830 W/m2
13:30 17.2 °C 5.4 °C 1023.6 hPa ENE 6.4 km/h 27.4 km/h 46 % 0.0 mm 837 W/m2
13:35 17.1 °C 5.6 °C 1023.6 hPa NE 11.3 km/h 27.4 km/h 47 % 0.0 mm 837 W/m2
13:40 17.4 °C 6.3 °C 1023.6 hPa East 12.9 km/h 27.4 km/h 48 % 0.0 mm 838 W/m2
13:45 17.4 °C 5.7 °C 1023.6 hPa ENE 8.0 km/h 24.1 km/h 46 % 0.0 mm 842 W/m2
13:50 17.4 °C 6.3 °C 1023.6 hPa ENE 16.1 km/h 27.4 km/h 48 % 0.0 mm 842 W/m2
13:55 17.2 °C 5.8 °C 1023.6 hPa ESE 11.3 km/h 29.0 km/h 47 % 0.0 mm 840 W/m2
14:00 17.6 °C 4.8 °C 1023.6 hPa ENE 17.7 km/h 29.0 km/h 43 % 0.0 mm 849 W/m2
14:05 17.8 °C 4.7 °C 1023.6 hPa ESE 8.0 km/h 22.5 km/h 42 % 0.0 mm 851 W/m2
14:10 17.6 °C 4.5 °C 1023.6 hPa ESE 11.3 km/h 29.0 km/h 42 % 0.0 mm 856 W/m2
14:15 17.4 °C 4.4 °C 1023.2 hPa ESE 11.3 km/h 29.0 km/h 42 % 0.0 mm 824 W/m2
14:20 17.5 °C 5.1 °C 1023.2 hPa ENE 25.7 km/h 29.0 km/h 44 % 0.0 mm 824 W/m2
14:25 17.9 °C 4.4 °C 1023.2 hPa ENE 12.9 km/h 25.7 km/h 41 % 0.0 mm 823 W/m2
14:30 17.7 °C 4.6 °C 1023.2 hPa East 12.9 km/h 25.7 km/h 42 % 0.0 mm 810 W/m2
14:35 17.9 °C 4.1 °C 1023.2 hPa East 11.3 km/h 29.0 km/h 40 % 0.0 mm 807 W/m2
14:40 18.1 °C 3.5 °C 1023.2 hPa East 8.0 km/h 29.0 km/h 38 % 0.0 mm 817 W/m2
14:45 18.2 °C 4.7 °C 1023.2 hPa NE 3.2 km/h 25.7 km/h 41 % 0.0 mm 823 W/m2
14:50 18.3 °C 3.7 °C 1023.2 hPa NE 11.3 km/h 27.4 km/h 38 % 0.0 mm 798 W/m2
14:55 17.9 °C 3.7 °C 1023.2 hPa NNE 4.8 km/h 27.4 km/h 39 % 0.0 mm 803 W/m2
15:00 18.4 °C 3.8 °C 1023.2 hPa East 17.7 km/h 27.4 km/h 38 % 0.0 mm 814 W/m2
15:05 18.2 °C 4.0 °C 1023.2 hPa East 6.4 km/h 27.4 km/h 39 % 0.0 mm 823 W/m2
15:10 18.4 °C 3.4 °C 1023.2 hPa ENE 11.3 km/h 25.7 km/h 37 % 0.0 mm 817 W/m2
15:15 18.3 °C 3.8 °C 1022.9 hPa ESE 6.4 km/h 29.0 km/h 38 % 0.0 mm 807 W/m2
15:20 18.2 °C 2.9 °C 1022.9 hPa East 8.0 km/h 29.0 km/h 36 % 0.0 mm 803 W/m2
15:25 18.5 °C 5.0 °C 1022.9 hPa ENE 11.3 km/h 27.4 km/h 41 % 0.0 mm 798 W/m2
15:30 18.6 °C 3.6 °C 1022.9 hPa SE 11.3 km/h 27.4 km/h 37 % 0.0 mm 788 W/m2
15:35 18.4 °C 3.5 °C 1022.9 hPa East 9.7 km/h 32.2 km/h 37 % 0.0 mm 782 W/m2
15:40 18.2 °C 3.2 °C 1022.9 hPa ENE 17.7 km/h 32.2 km/h 37 % 0.0 mm 779 W/m2
15:45 18.5 °C 4.6 °C 1022.6 hPa ENE 12.9 km/h 24.1 km/h 40 % 0.0 mm 772 W/m2
15:50 18.4 °C 3.9 °C 1022.6 hPa ENE 19.3 km/h 24.1 km/h 38 % 0.0 mm 765 W/m2
15:55 18.7 °C 4.1 °C 1022.6 hPa NE 8.0 km/h 25.7 km/h 38 % 0.0 mm 749 W/m2
16:00 18.7 °C 4.4 °C 1022.6 hPa ENE 4.8 km/h 25.7 km/h 39 % 0.0 mm 749 W/m2
16:05 18.6 °C 2.8 °C 1022.6 hPa East 12.9 km/h 24.1 km/h 35 % 0.0 mm 735 W/m2
16:10 18.5 °C 3.5 °C 1022.6 hPa ENE 3.2 km/h 24.1 km/h 37 % 0.0 mm 710 W/m2
16:15 18.4 °C 3.1 °C 1022.6 hPa ENE 11.3 km/h 32.2 km/h 36 % 0.0 mm 712 W/m2
16:20 18.3 °C 4.1 °C 1022.2 hPa ENE 4.8 km/h 32.2 km/h 39 % 0.0 mm 712 W/m2
16:25 18.6 °C 4.3 °C 1022.2 hPa East 16.1 km/h 27.4 km/h 39 % 0.0 mm 705 W/m2
16:30 18.7 °C 4.4 °C 1022.2 hPa East 6.4 km/h 27.4 km/h 39 % 0.0 mm 693 W/m2
16:35 18.6 °C 4.4 °C 1022.2 hPa ENE 24.1 km/h 27.4 km/h 39 % 0.0 mm 682 W/m2
16:40 18.6 °C 4.0 °C 1022.2 hPa ENE 17.7 km/h 24.1 km/h 38 % 0.0 mm 668 W/m2
16:45 18.4 °C 3.9 °C 1022.2 hPa ENE 14.5 km/h 24.1 km/h 38 % 0.0 mm 659 W/m2
16:50 18.5 °C 4.3 °C 1021.9 hPa NE 8.0 km/h 24.1 km/h 39 % 0.0 mm 647 W/m2
16:55 18.5 °C 3.5 °C 1021.9 hPa East 16.1 km/h 29.0 km/h 37 % 0.0 mm 615 W/m2
17:00 18.4 °C 3.9 °C 1021.9 hPa ESE 16.1 km/h 29.0 km/h 38 % 0.0 mm 624 W/m2
17:05 18.3 °C 4.5 °C 1021.9 hPa ESE 12.9 km/h 25.7 km/h 40 % 0.0 mm 610 W/m2
17:10 18.3 °C 4.1 °C 1021.9 hPa North 14.5 km/h 25.7 km/h 39 % 0.0 mm 594 W/m2
17:15 18.4 °C 3.5 °C 1021.9 hPa ENE 17.7 km/h 30.6 km/h 37 % 0.0 mm 582 W/m2
17:20 18.4 °C 4.2 °C 1021.9 hPa North 8.0 km/h 30.6 km/h 39 % 0.0 mm 570 W/m2
17:25 18.6 °C 4.3 °C 1021.9 hPa ENE 12.9 km/h 22.5 km/h 39 % 0.0 mm 555 W/m2
17:30 18.6 °C 4.4 °C 1021.9 hPa East 17.7 km/h 27.4 km/h 39 % 0.0 mm 540 W/m2
17:35 18.4 °C 4.6 °C 1021.9 hPa ESE 8.0 km/h 29.0 km/h 40 % 0.0 mm 529 W/m2
17:40 18.4 °C 4.6 °C 1021.9 hPa East 12.9 km/h 29.0 km/h 40 % 0.0 mm 517 W/m2
17:45 18.6 °C 4.7 °C 1021.6 hPa East 8.0 km/h 20.9 km/h 40 % 0.0 mm 499 W/m2
17:50 18.4 °C 4.6 °C 1021.6 hPa East 14.5 km/h 22.5 km/h 40 % 0.0 mm 489 W/m2
17:55 18.2 °C 3.7 °C 1021.6 hPa SE 12.9 km/h 22.5 km/h 38 % 0.0 mm 476 W/m2
18:00 18.4 °C 4.9 °C 1021.6 hPa NNE 1.6 km/h 20.9 km/h 41 % 0.0 mm 464 W/m2
18:05 18.3 °C 4.5 °C 1021.6 hPa East 9.7 km/h 20.9 km/h 40 % 0.0 mm 452 W/m2
18:10 18.4 °C 4.5 °C 1021.6 hPa ENE 4.8 km/h 20.9 km/h 40 % 0.0 mm 438 W/m2
18:15 18.1 °C 4.2 °C 1021.6 hPa East 4.8 km/h 29.0 km/h 40 % 0.0 mm 392 W/m2
18:20 17.9 °C 3.8 °C 1021.6 hPa ESE 11.3 km/h 29.0 km/h 39 % 0.0 mm 383 W/m2
18:25 18.0 °C 4.2 °C 1021.6 hPa East 4.8 km/h 27.4 km/h 40 % 0.0 mm 376 W/m2
18:30 18.1 °C 4.6 °C 1021.6 hPa ENE 3.2 km/h 24.1 km/h 41 % 0.0 mm 373 W/m2
18:35 18.0 °C 4.9 °C 1021.6 hPa ENE 4.8 km/h 24.1 km/h 42 % 0.0 mm 360 W/m2
18:40 17.9 °C 5.2 °C 1021.6 hPa ENE 20.9 km/h 25.7 km/h 43 % 0.0 mm 334 W/m2
18:45 17.8 °C 4.0 °C 1021.2 hPa SE 8.0 km/h 25.7 km/h 40 % 0.0 mm 334 W/m2
18:50 17.7 °C 3.9 °C 1021.6 hPa SE 11.3 km/h 25.7 km/h 40 % 0.0 mm 320 W/m2
18:55 17.7 °C 4.3 °C 1021.6 hPa East 8.0 km/h 24.1 km/h 41 % 0.0 mm 299 W/m2
19:00 17.6 °C 3.8 °C 1021.6 hPa ENE 8.0 km/h 24.1 km/h 40 % 0.0 mm 288 W/m2
19:05 17.4 °C 4.3 °C 1021.6 hPa NNE 12.9 km/h 19.3 km/h 42 % 0.0 mm 274 W/m2
19:10 17.3 °C 4.6 °C 1021.6 hPa East 14.5 km/h 22.5 km/h 43 % 0.0 mm 250 W/m2
19:15 17.1 °C 4.0 °C 1021.6 hPa ENE 3.2 km/h 22.5 km/h 42 % 0.0 mm 104 W/m2
19:20 16.9 °C 3.9 °C 1021.6 hPa ENE 6.4 km/h 24.1 km/h 42 % 0.0 mm 65 W/m2
19:25 16.8 °C 3.8 °C 1021.6 hPa NE 6.4 km/h 24.1 km/h 42 % 0.0 mm 62 W/m2
19:30 16.8 °C 3.8 °C 1021.6 hPa ENE 6.4 km/h 24.1 km/h 42 % 0.0 mm 109 W/m2
19:35 16.7 °C 4.0 °C 1021.6 hPa ENE 11.3 km/h 22.5 km/h 43 % 0.0 mm 134 W/m2
19:40 16.7 °C 4.0 °C 1021.2 hPa ENE 14.5 km/h 22.5 km/h 43 % 0.0 mm 120 W/m2
19:45 16.4 °C 4.1 °C 1021.6 hPa ENE 6.4 km/h 17.7 km/h 44 % 0.0 mm 88 W/m2
19:50 16.2 °C 4.6 °C 1021.6 hPa NE 14.5 km/h 22.5 km/h 46 % 0.0 mm 130 W/m2
19:55 16.2 °C 4.6 °C 1021.6 hPa ENE 3.2 km/h 22.5 km/h 46 % 0.0 mm 118 W/m2
20:00 16.2 °C 4.2 °C 1021.6 hPa East 11.3 km/h 19.3 km/h 45 % 0.0 mm 107 W/m2
20:05 16.1 °C 4.4 °C 1021.2 hPa ESE 8.0 km/h 17.7 km/h 46 % 0.0 mm 86 W/m2
20:10 15.9 °C 4.3 °C 1021.2 hPa East 8.0 km/h 17.7 km/h 46 % 0.0 mm 51 W/m2
20:15 15.8 °C 4.8 °C 1021.2 hPa ENE 4.8 km/h 16.1 km/h 48 % 0.0 mm 33 W/m2
20:20 15.3 °C 4.4 °C 1021.2 hPa ENE 1.6 km/h 16.1 km/h 48 % 0.0 mm 30 W/m2
20:25 15.2 °C 4.2 °C 1021.2 hPa ENE 11.3 km/h 16.1 km/h 48 % 0.0 mm 26 W/m2
20:30 15.1 °C 4.2 °C 1021.2 hPa Calm   16.1 km/h 48 % 0.0 mm 25 W/m2
20:35 14.8 °C 4.2 °C 1021.2 hPa ENE 8.0 km/h 17.7 km/h 49 % 0.0 mm 21 W/m2
20:40 14.5 °C 4.2 °C 1021.2 hPa ENE 8.0 km/h 17.7 km/h 50 % 0.0 mm 18 W/m2
20:45 14.4 °C 4.1 °C 1021.2 hPa East 8.0 km/h 16.1 km/h 50 % 0.0 mm 16 W/m2
20:50 14.3 °C 4.3 °C 1021.2 hPa ENE 3.2 km/h 14.5 km/h 51 % 0.0 mm 12 W/m2
20:55 13.9 °C 4.2 °C 1021.2 hPa East 11.3 km/h 14.5 km/h 52 % 0.0 mm 9 W/m2
21:00 13.7 °C 4.5 °C 1021.2 hPa ENE 3.2 km/h 12.9 km/h 54 % 0.0 mm 7 W/m2
21:05 13.3 °C 4.5 °C 1021.2 hPa NNE 1.6 km/h 14.5 km/h 55 % 0.0 mm 5 W/m2
21:10 13.2 °C 4.6 °C 1021.2 hPa ENE 6.4 km/h 14.5 km/h 56 % 0.0 mm 0 W/m2
21:15 13.1 °C 4.5 °C 1021.2 hPa NE 1.6 km/h 12.9 km/h 56 % 0.0 mm 0 W/m2
21:20 12.9 °C 4.6 °C 1021.2 hPa East 11.3 km/h 12.9 km/h 57 % 0.0 mm 0 W/m2
21:25 12.8 °C 4.5 °C 1021.2 hPa ENE 3.2 km/h 12.9 km/h 57 % 0.0 mm 0 W/m2
21:30 12.6 °C 4.8 °C 1021.2 hPa ENE 3.2 km/h 12.9 km/h 59 % 0.0 mm 0 W/m2
21:35 12.2 °C 4.7 °C 1021.2 hPa ENE 1.6 km/h 11.3 km/h 60 % 0.0 mm 0 W/m2
21:40 11.9 °C 4.7 °C 1021.2 hPa East 1.6 km/h 11.3 km/h 61 % 0.0 mm 0 W/m2
21:45 11.8 °C 4.7 °C 1021.6 hPa NE 1.6 km/h 6.4 km/h 62 % 0.0 mm 0 W/m2
21:50 11.6 °C 4.8 °C 1021.6 hPa ENE 4.8 km/h 9.7 km/h 63 % 0.0 mm 0 W/m2
21:55 11.5 °C 4.7 °C 1021.6 hPa NE 6.4 km/h 12.9 km/h 63 % 0.0 mm 0 W/m2
22:00 11.4 °C 4.6 °C 1021.6 hPa ENE 1.6 km/h 12.9 km/h 63 % 0.0 mm 0 W/m2
22:05 11.4 °C 4.8 °C 1021.6 hPa ENE 1.6 km/h 8.0 km/h 64 % 0.0 mm 0 W/m2
22:10 11.6 °C 4.7 °C 1021.6 hPa ENE 1.6 km/h 8.0 km/h 63 % 0.0 mm 0 W/m2
22:15 11.4 °C 4.8 °C 1021.6 hPa ENE 3.2 km/h 11.3 km/h 64 % 0.0 mm 0 W/m2
22:20 11.4 °C 4.8 °C 1021.6 hPa ENE 3.2 km/h 11.3 km/h 64 % 0.0 mm 0 W/m2
22:25 11.2 °C 4.7 °C 1021.6 hPa East 4.8 km/h 11.3 km/h 64 % 0.0 mm 0 W/m2
22:30 11.2 °C 4.8 °C 1021.6 hPa ENE 3.2 km/h 11.3 km/h 65 % 0.0 mm 0 W/m2
22:35 11.2 °C 4.8 °C 1021.6 hPa ENE 1.6 km/h 9.7 km/h 65 % 0.0 mm 0 W/m2
22:40 11.0 °C 4.7 °C 1021.6 hPa East 3.2 km/h 12.9 km/h 65 % 0.0 mm 0 W/m2
22:45 11.0 °C 4.7 °C 1021.6 hPa East 4.8 km/h 12.9 km/h 65 % 0.0 mm 0 W/m2
22:50 11.0 °C 4.4 °C 1021.6 hPa East 8.0 km/h 8.0 km/h 64 % 0.0 mm 0 W/m2
22:55 11.1 °C 4.5 °C 1021.6 hPa East 3.2 km/h 9.7 km/h 64 % 0.0 mm 0 W/m2
23:00 11.1 °C 4.6 °C 1021.6 hPa East 8.0 km/h 9.7 km/h 64 % 0.0 mm 0 W/m2
23:05 11.1 °C 4.6 °C 1021.6 hPa East 1.6 km/h 8.0 km/h 64 % 0.0 mm 0 W/m2
23:10 11.0 °C 4.4 °C 1021.6 hPa East 1.6 km/h 8.0 km/h 64 % 0.0 mm 0 W/m2
23:15 10.9 °C 4.4 °C 1021.6 hPa East 6.4 km/h 9.7 km/h 64 % 0.0 mm 0 W/m2
23:20 10.8 °C 4.5 °C 1021.6 hPa ESE 3.2 km/h 9.7 km/h 65 % 0.0 mm 0 W/m2
23:25 10.7 °C 4.4 °C 1021.6 hPa East 3.2 km/h 8.0 km/h 65 % 0.0 mm 0 W/m2
23:30 10.6 °C 4.5 °C 1021.6 hPa East 3.2 km/h 6.4 km/h 66 % 0.0 mm 0 W/m2
23:35 10.4 °C 4.3 °C 1021.2 hPa ENE 1.6 km/h 9.7 km/h 66 % 0.0 mm 0 W/m2
23:40 10.3 °C 4.4 °C 1021.2 hPa East 1.6 km/h 9.7 km/h 67 % 0.0 mm 0 W/m2
23:45 10.1 °C 4.3 °C 1021.2 hPa Calm   8.0 km/h 67 % 0.0 mm 0 W/m2
23:50 9.8 °C 4.2 °C 1021.2 hPa Calm   4.8 km/h 68 % 0.0 mm 0 W/m2
23:55 9.4 °C 4.2 °C 1021.2 hPa East 1.6 km/h 4.8 km/h 70 % 0.0 mm 0 W/m2
Avec l'autorisation de Weather Underground - 1.75 mb